LFCR

Rodez-Marcillac Airport

Airport
ICAO code
LFCR
IATA Code
RDZ
Summary
ICAO Region
EUR
ICAO Territory
Location

, Midi-Pyrenees

Serving
Rodez
Elevation
1910 ft
Coordinates
44° 24' 28" N , 2° 28' 58" E
Metar
LFCR 190500Z AUTO 17003KT CAVOK M03/M05 Q1023 NOSIG

Runways

Designator Length Width Surface Rops
13/31 2040 45 ASP No/No

Airport map

Aerial View

SKYbrary Partners:

Safety knowledge contributed by: